createdAt,value
2022-09-20T00:07:03.585Z,15.00244140625
2022-09-20T00:17:03.551Z,16.50390625
2022-09-20T00:27:03.447Z,16.39404296875
2022-09-20T00:37:03.371Z,16.29638671875
2022-09-20T00:47:03.285Z,16.29638671875
2022-09-20T00:57:03.226Z,15.90576171875
2022-09-20T01:07:03.162Z,16.6015625
2022-09-20T01:17:03.075Z,16.19873046875
2022-09-20T01:27:03.015Z,15.7958984375
2022-09-20T01:37:02.936Z,15.6005859375
2022-09-20T01:47:02.868Z,15.6982421875
2022-09-20T01:57:02.919Z,15.6005859375
2022-09-20T02:07:02.718Z,15.6005859375
2022-09-20T02:17:02.734Z,16.00341796875
2022-09-20T02:27:02.574Z,17.29736328125
2022-09-20T02:37:02.480Z,17.10205078125
2022-09-20T02:47:02.406Z,16.6015625
2022-09-20T02:57:02.342Z,17.10205078125
2022-09-20T03:07:02.254Z,16.69921875
2022-09-20T03:17:02.344Z,16.796875
2022-09-20T03:27:02.124Z,16.89453125
2022-09-20T03:37:02.058Z,16.29638671875
2022-09-20T03:47:01.980Z,15.7958984375
2022-09-20T03:57:01.906Z,15.6982421875
2022-09-20T04:07:01.823Z,15.4052734375
2022-09-20T04:17:01.882Z,15.29541015625
2022-09-20T04:27:01.679Z,15.00244140625
2022-09-20T04:37:01.614Z,15.19775390625
2022-09-20T04:47:01.528Z,15.10009765625
2022-09-20T04:57:01.475Z,14.90478515625
2022-09-20T05:07:01.503Z,14.697265625
2022-09-20T05:17:01.378Z,14.697265625
2022-09-20T05:27:01.255Z,14.697265625
2022-09-20T05:37:01.185Z,14.599609375
2022-09-20T05:47:01.102Z,14.404296875
2022-09-20T05:57:01.028Z,14.29443359375
2022-09-20T06:07:00.987Z,14.19677734375
2022-09-20T06:17:00.948Z,14.09912109375
2022-09-20T06:27:00.827Z,14.00146484375
2022-09-20T06:37:00.761Z,14.09912109375
2022-09-20T06:47:00.661Z,14.00146484375
2022-09-20T06:57:00.599Z,14.00146484375
2022-09-20T07:07:00.525Z,14.09912109375
2022-09-20T07:17:00.461Z,14.00146484375
2022-09-20T07:27:00.368Z,13.90380859375
2022-09-20T07:37:00.315Z,13.90380859375
2022-09-20T07:47:00.250Z,13.7939453125
2022-09-20T07:57:00.173Z,13.6962890625
2022-09-20T08:07:00.090Z,13.5986328125
2022-09-20T08:17:00.074Z,13.4033203125
2022-09-20T08:26:59.947Z,13.19580078125
2022-09-20T08:36:59.882Z,13.00048828125
2022-09-20T08:46:59.808Z,12.6953125
2022-09-20T08:56:59.728Z,12.59765625
2022-09-20T09:06:59.663Z,12.5
2022-09-20T09:16:59.692Z,12.6953125
2022-09-20T09:26:59.536Z,12.6953125
2022-09-20T09:36:59.474Z,12.90283203125
2022-09-20T09:46:59.384Z,12.80517578125
2022-09-20T09:56:59.327Z,12.80517578125
2022-09-20T10:06:59.232Z,12.6953125
2022-09-20T10:16:59.165Z,12.80517578125
2022-09-20T10:26:59.212Z,12.80517578125
2022-09-20T10:36:59.030Z,12.80517578125
2022-09-20T10:46:59.051Z,12.80517578125
2022-09-20T10:56:58.896Z,12.80517578125
2022-09-20T11:06:58.801Z,12.90283203125
2022-09-20T11:16:58.846Z,12.90283203125
2022-09-20T11:26:58.675Z,12.90283203125
2022-09-20T11:36:58.629Z,12.90283203125
2022-09-20T11:46:58.528Z,12.90283203125
2022-09-20T11:56:58.465Z,12.90283203125
2022-09-20T12:06:58.519Z,12.80517578125
2022-09-20T12:16:58.310Z,12.80517578125
2022-09-20T12:26:58.309Z,12.80517578125
2022-09-20T12:36:58.153Z,12.6953125
2022-09-20T12:46:58.113Z,12.6953125
2022-09-20T12:56:58.040Z,12.40234375
2022-09-20T13:06:57.961Z,12.200927734375
2022-09-20T13:16:57.899Z,12.09716796875
2022-09-20T13:26:57.829Z,12.200927734375
2022-09-20T13:36:57.760Z,12.40234375
2022-09-20T13:46:57.694Z,12.40234375
2022-09-20T13:56:57.615Z,12.09716796875
2022-09-20T14:06:57.635Z,11.90185546875
2022-09-20T14:16:57.650Z,11.798095703125
2022-09-20T14:26:57.397Z,11.602783203125
2022-09-20T14:36:57.324Z,11.700439453125
2022-09-20T14:46:57.261Z,11.602783203125
2022-09-20T14:56:57.230Z,11.700439453125
2022-09-20T15:06:57.125Z,11.700439453125
2022-09-20T15:16:57.056Z,11.700439453125
2022-09-20T15:26:56.980Z,11.700439453125
2022-09-20T15:36:57.910Z,11.602783203125
2022-09-20T15:46:56.847Z,11.4990234375
2022-09-20T15:56:56.749Z,11.602783203125
2022-09-20T16:06:56.708Z,11.4990234375
2022-09-20T16:16:56.701Z,11.4013671875
2022-09-20T16:26:56.565Z,11.4013671875
2022-09-20T16:36:56.484Z,11.602783203125
2022-09-20T16:46:56.395Z,11.602783203125
2022-09-20T16:56:56.350Z,11.4990234375
2022-09-20T17:06:56.266Z,11.4990234375
2022-09-20T17:16:56.176Z,11.4013671875
2022-09-20T17:26:56.131Z,11.297607421875
2022-09-20T17:36:56.051Z,11.700439453125
2022-09-20T17:46:56.024Z,11.4013671875
2022-09-20T17:56:56.350Z,11.297607421875
2022-09-20T18:06:55.843Z,11.102294921875
2022-09-20T18:16:55.759Z,10.90087890625
2022-09-20T18:26:55.716Z,10.90087890625
2022-09-20T18:36:55.631Z,10.99853515625
2022-09-20T18:46:55.617Z,10.99853515625
2022-09-20T18:56:55.582Z,11.102294921875
2022-09-20T19:06:55.414Z,11.199951171875
2022-09-20T19:16:55.343Z,11.199951171875
2022-09-20T19:26:55.259Z,11.199951171875
2022-09-20T19:36:55.209Z,11.297607421875
2022-09-20T19:46:59.643Z,11.199951171875
2022-09-20T19:56:55.060Z,11.102294921875
2022-09-20T20:06:54.988Z,11.102294921875
2022-09-20T20:16:55.024Z,11.297607421875
2022-09-20T20:26:54.842Z,11.297607421875
2022-09-20T20:36:54.779Z,11.90185546875
2022-09-20T20:46:54.811Z,12.298583984375
2022-09-20T20:56:54.639Z,12.59765625
2022-09-20T21:06:54.552Z,13.09814453125
2022-09-20T21:16:54.481Z,13.00048828125
2022-09-20T21:26:54.405Z,12.40234375
2022-09-20T21:36:54.367Z,12.6953125
2022-09-20T21:46:54.294Z,12.80517578125
2022-09-20T21:56:54.224Z,13.09814453125
2022-09-20T22:06:54.130Z,13.5009765625
2022-09-20T22:16:54.083Z,13.90380859375
2022-09-20T22:26:53.992Z,13.90380859375
2022-09-20T22:36:53.939Z,14.19677734375
2022-09-20T22:46:53.864Z,14.29443359375
2022-09-20T22:56:53.788Z,14.09912109375
2022-09-20T23:06:53.732Z,14.09912109375
2022-09-20T23:16:53.706Z,14.19677734375
2022-09-20T23:26:53.684Z,14.09912109375
2022-09-20T23:36:53.511Z,14.09912109375
2022-09-20T23:46:53.427Z,13.5986328125
2022-09-20T23:56:53.356Z,13.6962890625
